createdAt,value
2018-07-19T00:01:12.561Z,16.70
2018-07-19T00:06:15.604Z,16.60
2018-07-19T00:11:18.646Z,16.50
2018-07-19T00:16:21.712Z,16.20
2018-07-19T00:21:24.754Z,16.00
2018-07-19T00:26:27.813Z,15.90
2018-07-19T00:31:30.860Z,15.90
2018-07-19T00:36:33.923Z,15.90
2018-07-19T00:41:36.984Z,15.80
2018-07-19T00:46:40.057Z,15.70
2018-07-19T00:51:43.115Z,15.50
2018-07-19T00:56:46.144Z,15.40
2018-07-19T01:01:49.208Z,15.40
2018-07-19T01:06:52.272Z,15.30
2018-07-19T01:11:55.341Z,15.30
2018-07-19T01:16:58.429Z,15.20
2018-07-19T01:22:01.485Z,15.10
2018-07-19T01:27:04.544Z,14.90
2018-07-19T01:32:07.629Z,14.90
2018-07-19T01:37:10.689Z,14.80
2018-07-19T01:42:26.328Z,14.80
2018-07-19T01:47:29.420Z,14.70
2018-07-19T01:52:32.461Z,14.50
2018-07-19T01:57:35.524Z,14.40
2018-07-19T02:02:38.594Z,14.30
2018-07-19T02:07:41.678Z,14.40
2018-07-19T02:12:44.691Z,14.50
2018-07-19T02:17:47.776Z,14.60
2018-07-19T02:22:50.834Z,14.60
2018-07-19T02:27:53.893Z,14.40
2018-07-19T02:32:56.948Z,14.30
2018-07-19T02:38:00.027Z,14.20
2018-07-19T02:43:03.073Z,14.20
2018-07-19T02:48:06.145Z,14.20
2018-07-19T02:53:09.205Z,14.10
2018-07-19T02:58:12.262Z,14.00
2018-07-19T03:03:15.323Z,13.80
2018-07-19T03:08:18.365Z,13.70
2018-07-19T03:13:21.609Z,13.70
2018-07-19T03:18:24.673Z,13.60
2018-07-19T03:23:27.732Z,13.60
2018-07-19T03:28:30.802Z,13.50
2018-07-19T03:33:33.848Z,13.50
2018-07-19T03:38:36.917Z,13.40
2018-07-19T03:43:39.977Z,13.30
2018-07-19T03:48:43.033Z,13.20
2018-07-19T03:53:46.076Z,13.10
2018-07-19T03:58:49.132Z,13.10
2018-07-19T04:03:52.188Z,13.00
2018-07-19T04:08:55.253Z,13.00
2018-07-19T04:13:58.296Z,13.00
2018-07-19T04:19:01.366Z,13.00
2018-07-19T04:24:04.420Z,13.10
2018-07-19T04:29:07.476Z,13.20
2018-07-19T04:34:10.535Z,13.50
2018-07-19T04:39:13.605Z,13.70
2018-07-19T04:44:16.645Z,13.90
2018-07-19T04:49:19.710Z,14.10
2018-07-19T04:54:22.937Z,14.30
2018-07-19T04:59:26.017Z,14.50
2018-07-19T05:04:29.213Z,14.80
2018-07-19T05:09:32.272Z,15.20
2018-07-19T05:14:35.341Z,15.50
2018-07-19T05:19:38.408Z,15.90
2018-07-19T05:24:41.466Z,16.20
2018-07-19T05:29:44.509Z,16.40
2018-07-19T05:34:47.581Z,16.50
2018-07-19T05:39:50.629Z,16.80
2018-07-19T05:44:53.693Z,17.10
2018-07-19T05:49:56.848Z,17.50
2018-07-19T05:54:59.904Z,17.80
2018-07-19T06:00:02.984Z,18.20
2018-07-19T06:05:06.054Z,18.50
2018-07-19T06:10:09.129Z,18.80
2018-07-19T06:15:12.193Z,19.00
2018-07-19T06:20:15.249Z,19.20
2018-07-19T06:25:18.312Z,19.50
2018-07-19T06:30:21.381Z,19.80
2018-07-19T06:35:24.458Z,20.00
2018-07-19T06:40:27.532Z,20.20
2018-07-19T06:45:30.605Z,20.50
2018-07-19T06:50:33.740Z,20.70
2018-07-19T06:55:36.812Z,20.90
2018-07-19T07:00:39.876Z,21.10
2018-07-19T07:05:42.932Z,21.30
2018-07-19T07:10:45.984Z,21.50
2018-07-19T07:15:49.105Z,21.70
2018-07-19T07:20:52.157Z,21.90
2018-07-19T07:25:55.693Z,22.10
2018-07-19T07:30:58.741Z,22.30
2018-07-19T07:36:01.793Z,22.40
2018-07-19T07:41:04.867Z,22.60
2018-07-19T07:46:07.922Z,22.90
2018-07-19T07:51:11.057Z,23.00
2018-07-19T07:56:14.116Z,23.20
2018-07-19T08:01:17.200Z,23.50
2018-07-19T08:06:20.277Z,23.70
2018-07-19T08:11:23.340Z,23.80
2018-07-19T08:16:26.396Z,24.00
2018-07-19T08:21:29.501Z,24.20
2018-07-19T08:26:32.542Z,24.30
2018-07-19T08:31:35.604Z,24.50
2018-07-19T08:36:38.653Z,24.70
2018-07-19T08:41:42.236Z,24.80
2018-07-19T08:46:45.308Z,24.90
2018-07-19T08:51:48.380Z,25.00
2018-07-19T08:56:51.444Z,25.20
2018-07-19T09:01:54.517Z,25.30
2018-07-19T09:06:57.593Z,25.30
2018-07-19T09:12:00.650Z,25.30
2018-07-19T09:17:03.850Z,25.50
2018-07-19T09:22:06.912Z,25.70
2018-07-19T09:27:09.981Z,25.80
2018-07-19T09:32:13.037Z,25.80
2018-07-19T09:37:16.113Z,25.60
2018-07-19T09:42:19.172Z,25.70
2018-07-19T09:47:22.233Z,25.90
2018-07-19T09:52:25.308Z,26.10
2018-07-19T09:57:29.234Z,26.10
2018-07-19T10:02:32.296Z,26.30
2018-07-19T10:07:35.344Z,26.30
2018-07-19T10:12:38.441Z,26.20
2018-07-19T10:17:41.509Z,26.20
2018-07-19T10:22:44.575Z,26.20
2018-07-19T10:27:47.629Z,26.40
2018-07-19T10:32:50.691Z,26.30
2018-07-19T10:37:53.774Z,26.30
2018-07-19T10:42:56.837Z,26.40
2018-07-19T10:47:59.893Z,26.30
2018-07-19T10:53:02.964Z,26.30
2018-07-19T10:58:06.021Z,26.20
2018-07-19T11:03:09.064Z,26.20
2018-07-19T11:08:12.125Z,26.40
2018-07-19T11:13:15.161Z,26.30
2018-07-19T11:18:18.213Z,26.30
2018-07-19T11:23:21.522Z,26.30
2018-07-19T11:28:24.646Z,26.30
2018-07-19T11:33:27.674Z,26.50
2018-07-19T11:38:30.729Z,26.60
2018-07-19T11:43:33.784Z,26.50
2018-07-19T11:48:36.848Z,26.60
2018-07-19T11:53:39.916Z,26.70
2018-07-19T11:58:42.973Z,26.70
2018-07-19T12:03:46.076Z,26.60
2018-07-19T12:08:49.146Z,26.50
2018-07-19T12:13:52.998Z,26.40
2018-07-19T12:18:56.061Z,26.30
2018-07-19T12:23:59.132Z,26.30
2018-07-19T12:29:02.197Z,26.30
2018-07-19T12:34:05.281Z,26.50
2018-07-19T12:39:09.457Z,26.60
2018-07-19T12:44:12.509Z,26.70
2018-07-19T12:49:15.568Z,26.70
2018-07-19T12:54:18.661Z,26.80
2018-07-19T12:59:21.716Z,26.80
2018-07-19T13:04:24.772Z,26.90
2018-07-19T13:09:27.857Z,26.90
2018-07-19T13:14:30.913Z,27.00
2018-07-19T13:19:33.975Z,27.10
2018-07-19T13:24:37.042Z,27.10
2018-07-19T13:29:40.113Z,27.20
2018-07-19T13:34:43.178Z,27.10
2018-07-19T13:39:46.292Z,27.00
2018-07-19T13:44:49.845Z,27.10
2018-07-19T13:49:52.885Z,27.10
2018-07-19T13:54:55.932Z,27.00
2018-07-19T13:59:58.988Z,26.90
2018-07-19T14:05:02.070Z,26.80
2018-07-19T14:10:05.221Z,26.80
2018-07-19T14:15:08.284Z,26.90
2018-07-19T14:20:11.336Z,27.00
2018-07-19T14:25:14.388Z,27.00
2018-07-19T14:30:17.637Z,26.80
2018-07-19T14:35:20.709Z,26.80
2018-07-19T14:40:23.840Z,26.70
2018-07-19T14:45:27.037Z,26.70
2018-07-19T14:50:30.084Z,26.70
2018-07-19T14:55:33.132Z,26.80
2018-07-19T15:00:36.185Z,26.60
2018-07-19T15:05:39.256Z,26.70
2018-07-19T15:10:42.309Z,26.80
2018-07-19T15:15:45.388Z,26.80
2018-07-19T15:20:48.448Z,27.00
2018-07-19T15:25:51.512Z,27.20
2018-07-19T15:30:54.569Z,27.40
2018-07-19T15:35:57.616Z,27.60
2018-07-19T15:41:00.660Z,27.60
2018-07-19T15:46:03.704Z,27.70
2018-07-19T15:51:06.749Z,28.00
2018-07-19T15:56:09.797Z,28.10
2018-07-19T16:01:12.849Z,28.10
2018-07-19T16:06:15.937Z,28.00
2018-07-19T16:11:18.977Z,28.00
2018-07-19T16:16:22.043Z,28.10
2018-07-19T16:21:25.149Z,28.10
2018-07-19T16:26:28.228Z,28.20
2018-07-19T16:31:31.301Z,28.30
2018-07-19T16:36:34.374Z,28.30
2018-07-19T16:41:37.730Z,28.10
2018-07-19T16:46:40.818Z,27.80
2018-07-19T16:51:43.892Z,27.60
2018-07-19T16:56:46.960Z,27.50
2018-07-19T17:01:50.044Z,27.50
2018-07-19T17:06:53.122Z,27.60
2018-07-19T17:11:56.224Z,27.50
2018-07-19T17:16:59.297Z,27.40
2018-07-19T17:22:02.525Z,27.40
2018-07-19T17:27:05.584Z,27.10
2018-07-19T17:32:08.625Z,27.00
2018-07-19T17:37:11.722Z,26.90
2018-07-19T17:42:14.774Z,26.80
2018-07-19T17:47:17.833Z,26.70
2018-07-19T17:52:20.909Z,26.60
2018-07-19T17:57:23.976Z,26.60
2018-07-19T18:02:27.068Z,26.50
2018-07-19T18:07:30.122Z,26.40
2018-07-19T18:12:33.168Z,26.20
2018-07-19T18:17:36.228Z,26.00
2018-07-19T18:22:39.276Z,25.80
2018-07-19T18:27:42.339Z,25.70
2018-07-19T18:32:45.393Z,25.50
2018-07-19T18:37:48.441Z,25.30
2018-07-19T18:42:51.512Z,25.10
2018-07-19T18:47:54.606Z,24.90
2018-07-19T18:52:57.624Z,24.80
2018-07-19T18:58:00.677Z,24.60
2018-07-19T19:03:03.744Z,24.50
2018-07-19T19:08:06.820Z,24.30
2018-07-19T19:13:09.892Z,24.20
2018-07-19T19:18:12.941Z,24.00
2018-07-19T19:23:15.996Z,23.70
2018-07-19T19:28:19.122Z,23.50
2018-07-19T19:33:22.153Z,23.30
2018-07-19T19:38:25.204Z,23.20
2018-07-19T19:43:28.284Z,23.00
2018-07-19T19:48:34.824Z,22.90
2018-07-19T19:53:37.876Z,22.70
2018-07-19T19:58:40.968Z,22.50
2018-07-19T20:03:43.985Z,22.30
2018-07-19T20:08:47.097Z,22.10
2018-07-19T20:13:50.172Z,21.90
2018-07-19T20:18:53.236Z,21.70
2018-07-19T20:23:56.299Z,21.40
2018-07-19T20:28:59.352Z,21.30
2018-07-19T20:34:02.412Z,21.10
2018-07-19T20:39:06.699Z,20.80
2018-07-19T20:44:09.774Z,20.80
2018-07-19T20:49:12.837Z,20.70
2018-07-19T20:54:15.897Z,20.50
2018-07-19T20:59:18.968Z,20.30
2018-07-19T21:04:22.069Z,20.30
2018-07-19T21:09:25.069Z,20.20
2018-07-19T21:14:28.133Z,20.10
2018-07-19T21:19:31.192Z,19.90
2018-07-19T21:24:34.241Z,19.70
2018-07-19T21:29:37.325Z,19.50
2018-07-19T21:34:40.412Z,19.40
2018-07-19T21:39:43.469Z,19.30
2018-07-19T21:44:46.541Z,19.20
2018-07-19T21:49:49.593Z,19.10
2018-07-19T21:54:54.857Z,18.90
2018-07-19T21:59:57.926Z,18.90
2018-07-19T22:05:00.989Z,18.60
2018-07-19T22:10:04.553Z,18.40
2018-07-19T22:15:08.382Z,18.20
2018-07-19T22:20:11.474Z,18.20
2018-07-19T22:25:14.528Z,18.10
2018-07-19T22:30:17.590Z,18.10
2018-07-19T22:35:20.688Z,18.00
2018-07-19T22:40:23.744Z,17.90
2018-07-19T22:45:26.851Z,17.70
2018-07-19T22:50:29.871Z,17.60
2018-07-19T22:55:32.934Z,17.60
2018-07-19T23:00:36.005Z,17.60
2018-07-19T23:05:39.081Z,17.50
2018-07-19T23:10:42.151Z,17.50
2018-07-19T23:15:45.204Z,17.50
2018-07-19T23:20:48.289Z,17.40
2018-07-19T23:25:51.357Z,17.30
2018-07-19T23:30:54.423Z,17.10
2018-07-19T23:37:02.753Z,16.90
2018-07-19T23:42:09.483Z,16.90
2018-07-19T23:47:16.477Z,16.80
2018-07-19T23:52:19.542Z,16.70
2018-07-19T23:57:22.593Z,16.50
